Time;durP1;ratioP1;P1;durP2;ratioP2;P2;SDS_P1;SDS_P2;PMS_P1;PMS_P2;Temp;Humidity;BMP_temperature;BMP_pressure;BME280_temperature;BME280_humidity;BME280_pressure;Samples;Min_cycle;Max_cycle;Signal;HPM_P1;HPM_P2
2021/12/14 00:01:11;;;;;;;10.77;8.47;;;7.10;99.90;;;7.80;100.00;-19992.28;5093385;28;20192;-62
2021/12/14 00:03:44;;;;;;;9.73;7.90;;;7.10;99.90;;;7.82;100.00;-19992.97;5093676;28;20216;-60
2021/12/14 00:06:16;;;;;;;11.57;8.70;;;7.10;99.90;;;7.82;100.00;-19993.13;5093340;28;20218;-61
2021/12/14 00:08:53;;;;;;;11.40;8.50;;;7.10;99.90;;;7.93;100.00;-19996.91;5093495;28;20200;-61
2021/12/14 00:11:28;;;;;;;10.73;8.03;;;7.10;99.90;;;7.93;100.00;-19996.91;5093541;28;20180;-61
2021/12/14 00:14:12;;;;;;;9.67;7.87;;;7.10;99.90;;;7.82;100.00;-19992.97;5093282;28;20187;-61
2021/12/14 00:16:43;;;;;;;10.03;7.70;;;7.10;99.90;;;7.78;100.00;-19991.78;5092895;28;20191;-61
2021/12/14 00:19:12;;;;;;;12.83;9.03;;;7.10;99.90;;;7.77;100.00;-19991.44;5093272;28;20703;-62
2021/12/14 00:21:43;;;;;;;11.13;8.10;;;7.00;99.90;;;7.85;100.00;-19994.00;5092806;28;20662;-60
2021/12/14 00:24:14;;;;;;;10.07;8.27;;;7.00;99.90;;;7.83;100.00;-19993.47;5093480;28;20185;-61
2021/12/14 00:26:51;;;;;;;11.43;8.53;;;7.00;99.90;;;7.77;100.00;-19991.44;5093200;28;20219;-62
2021/12/14 00:29:24;;;;;;;10.00;7.77;;;7.00;99.90;;;7.79;100.00;-19991.94;5093255;28;20203;-61
2021/12/14 00:31:55;;;;;;;9.27;7.20;;;7.00;99.90;;;7.77;100.00;-19991.25;5092722;28;20239;-61
2021/12/14 00:34:34;;;;;;;10.97;8.37;;;7.00;99.90;;;7.74;100.00;-19990.22;5093263;28;20275;-61
2021/12/14 00:37:04;;;;;;;9.87;7.70;;;7.00;99.90;;;7.71;100.00;-19989.22;5092837;28;20180;-62
2021/12/14 00:39:34;;;;;;;12.47;9.40;;;7.00;99.90;;;7.79;100.00;-19992.13;5093189;28;20303;-61
2021/12/14 00:42:03;;;;;;;9.80;8.23;;;7.00;99.90;;;7.72;100.00;-19989.56;5092641;28;20231;-61
2021/12/14 00:44:33;;;;;;;11.83;8.80;;;7.00;99.90;;;7.73;100.00;-19990.06;5092976;28;20202;-61
2021/12/14 00:47:01;;;;;;;11.63;9.43;;;7.00;99.90;;;7.69;100.00;-19988.69;5092446;28;20235;-61
2021/12/14 00:49:30;;;;;;;11.83;9.63;;;7.00;99.90;;;7.71;100.00;-19989.22;5092843;28;20311;-60
2021/12/14 00:51:59;;;;;;;10.50;9.27;;;7.00;99.90;;;7.70;100.00;-19988.88;5092277;28;20204;-62
2021/12/14 00:54:28;;;;;;;10.13;8.10;;;7.00;99.90;;;7.69;100.00;-19988.53;5092391;28;20246;-61
2021/12/14 00:56:58;;;;;;;10.87;8.37;;;7.00;99.90;;;7.78;100.00;-19991.78;5092571;28;20231;-62
2021/12/14 00:59:26;;;;;;;10.07;8.63;;;7.00;99.90;;;7.70;100.00;-19988.88;5093071;28;20284;-61
2021/12/14 01:01:59;;;;;;;9.23;8.30;;;7.00;99.90;;;7.69;100.00;-19988.53;5087046;28;20288;-62
2021/12/14 01:04:34;;;;;;;10.83;7.67;;;6.90;99.90;;;7.66;100.00;-19987.50;5072532;28;20583;-60
2021/12/14 01:07:05;;;;;;;8.87;7.07;;;7.00;99.90;;;7.71;100.00;-19989.22;5089642;28;20191;-62
2021/12/14 01:09:38;;;;;;;7.90;6.83;;;7.00;99.90;;;7.66;100.00;-19987.50;5092763;28;20210;-61
2021/12/14 01:12:18;;;;;;;8.90;7.13;;;7.00;99.90;;;7.65;100.00;-19987.34;5092266;28;20184;-62
2021/12/14 01:15:11;;;;;;;9.00;7.30;;;6.90;99.90;;;7.62;100.00;-19986.31;5092691;28;20278;-61
2021/12/14 01:17:54;;;;;;;9.80;7.40;;;6.90;99.90;;;7.63;100.00;-19986.47;5092259;28;20210;-60
2021/12/14 01:20:30;;;;;;;7.10;5.97;;;6.90;99.90;;;7.65;100.00;-19987.34;5092762;28;20223;-61
2021/12/14 01:23:01;;;;;;;7.37;5.80;;;6.90;99.90;;;7.60;100.00;-19985.44;5092134;28;20188;-60
2021/12/14 01:25:36;;;;;;;8.33;6.40;;;6.90;99.90;;;7.68;100.00;-19988.34;5092724;28;20262;-60
2021/12/14 01:28:11;;;;;;;7.80;6.43;;;6.90;99.90;;;7.67;100.00;-19988.00;5092221;28;20283;-61
2021/12/14 01:30:55;;;;;;;8.23;6.30;;;6.90;99.90;;;7.68;100.00;-19988.34;5092183;28;20208;-61
2021/12/14 01:33:25;;;;;;;7.17;6.33;;;6.90;99.90;;;7.66;100.00;-19987.66;5091969;28;20235;-62
2021/12/14 01:35:56;;;;;;;7.67;6.27;;;6.90;99.90;;;7.60;100.00;-19985.63;5092307;28;20184;-61
2021/12/14 01:38:44;;;;;;;7.30;6.33;;;6.90;99.90;;;7.72;100.00;-19989.56;5092284;28;20271;-62
2021/12/14 01:41:18;;;;;;;7.60;6.70;;;6.90;99.90;;;7.68;100.00;-19988.19;5092257;28;20192;-61
2021/12/14 01:43:55;;;;;;;8.10;6.47;;;6.90;99.90;;;7.62;100.00;-19986.13;5092076;28;20638;-60
2021/12/14 01:46:29;;;;;;;9.13;7.87;;;6.90;99.90;;;7.67;100.00;-19987.84;5092082;28;20188;-63
2021/12/14 01:49:02;;;;;;;10.17;9.17;;;6.90;99.90;;;7.67;100.00;-19987.84;5091939;28;20663;-61
2021/12/14 01:51:31;;;;;;;10.37;8.87;;;6.90;99.90;;;7.66;100.00;-19987.50;5092120;28;20195;-61
2021/12/14 01:53:59;;;;;;;10.07;9.07;;;6.90;99.90;;;7.60;100.00;-19985.44;5091975;28;20204;-62
2021/12/14 01:56:32;;;;;;;8.03;7.13;;;6.90;99.90;;;7.71;100.00;-19989.38;5092291;28;20199;-60
2021/12/14 01:59:09;;;;;;;8.57;7.50;;;6.90;99.90;;;7.77;100.00;-19991.44;5079175;28;20205;-61
2021/12/14 02:01:46;;;;;;;8.00;7.00;;;6.90;99.90;;;7.76;100.00;-19990.91;5071840;28;20279;-61
2021/12/14 02:04:21;;;;;;;7.97;6.47;;;6.90;99.90;;;7.71;100.00;-19989.22;5072000;28;20653;-61
2021/12/14 02:06:56;;;;;;;9.30;7.30;;;6.90;99.90;;;7.78;100.00;-19991.59;5088317;28;20274;-61
2021/12/14 02:09:28;;;;;;;9.07;7.30;;;7.00;99.90;;;8.05;100.00;-20000.84;5092097;28;20200;-61
2021/12/14 02:12:09;;;;;;;9.37;7.60;;;7.00;99.90;;;7.73;100.00;-19990.06;5092045;28;20533;-62
2021/12/14 02:14:39;;;;;;;9.03;8.10;;;7.00;99.90;;;7.82;100.00;-19992.97;5092105;28;20196;-62
2021/12/14 02:17:12;;;;;;;9.87;7.73;;;6.90;99.90;;;7.75;100.00;-19990.56;5091989;28;20279;-61
2021/12/14 02:19:43;;;;;;;8.97;7.70;;;7.00;99.90;;;7.68;100.00;-19988.34;5095891;28;20245;-61
2021/12/14 02:22:14;;;;;;;10.63;8.80;;;7.00;99.90;;;7.68;100.00;-19988.19;5095550;28;20208;-60
2021/12/14 02:24:47;;;;;;;10.07;8.40;;;6.90;99.90;;;7.73;100.00;-19989.91;5095688;28;20275;-60
2021/12/14 02:27:17;;;;;;;9.83;8.40;;;7.00;99.90;;;7.63;100.00;-19986.66;5095108;28;20709;-62
2021/12/14 02:29:49;;;;;;;11.23;8.80;;;6.90;99.90;;;7.69;100.00;-19988.69;5095480;28;20242;-62
2021/12/14 02:32:26;;;;;;;8.97;8.07;;;6.90;99.90;;;7.63;100.00;-19986.66;5094964;28;20714;-61
2021/12/14 02:35:00;;;;;;;10.20;8.10;;;6.90;99.90;;;7.65;100.00;-19987.16;5095572;28;20184;-60
2021/12/14 02:37:42;;;;;;;10.00;8.27;;;6.90;99.90;;;7.67;100.00;-19988.00;5095304;28;20179;-60
2021/12/14 02:40:19;;;;;;;9.70;8.23;;;6.90;99.90;;;7.63;100.00;-19986.66;5095498;28;20212;-60
2021/12/14 02:42:53;;;;;;;10.03;8.73;;;6.90;99.90;;;7.73;100.00;-19989.91;5095181;28;20279;-60
2021/12/14 02:45:24;;;;;;;10.00;8.37;;;6.90;99.90;;;7.63;100.00;-19986.47;5095234;28;20184;-61
2021/12/14 02:47:53;;;;;;;11.57;9.20;;;6.90;99.90;;;7.58;100.00;-19984.94;5094835;28;20536;-61
2021/12/14 02:50:25;;;;;;;10.33;9.13;;;6.90;99.90;;;7.56;100.00;-19984.09;5094913;28;20223;-60
2021/12/14 02:52:54;;;;;;;14.57;13.00;;;6.90;99.90;;;7.56;100.00;-19984.25;5094925;28;20276;-61
2021/12/14 02:55:27;;;;;;;15.60;13.13;;;6.80;99.90;;;7.61;100.00;-19985.78;5094899;28;20218;-60
2021/12/14 02:58:00;;;;;;;13.17;11.23;;;6.80;99.90;;;7.56;100.00;-19984.25;5094895;28;20198;-60
2021/12/14 03:00:33;;;;;;;13.03;8.93;;;6.80;99.90;;;7.52;100.00;-19982.88;5094515;28;20597;-62
2021/12/14 03:03:05;;;;;;;10.80;8.90;;;6.80;99.90;;;7.51;100.00;-19982.38;5094269;28;20184;-61
2021/12/14 03:05:39;;;;;;;10.07;8.40;;;6.80;99.90;;;7.57;100.00;-19984.59;5094443;28;20275;-61
2021/12/14 03:08:15;;;;;;;12.93;9.50;;;6.80;99.90;;;7.60;100.00;-19985.63;5093870;28;20190;-61
2021/12/14 03:10:59;;;;;;;11.47;9.50;;;6.80;99.90;;;7.64;100.00;-19987.00;5094289;28;20211;-61
2021/12/14 03:13:34;;;;;;;10.83;9.10;;;6.80;99.90;;;7.56;100.00;-19984.09;5094256;28;20267;-62
2021/12/14 03:16:08;;;;;;;11.93;10.27;;;6.90;99.90;;;7.53;100.00;-19983.22;5094612;28;20207;-61
2021/12/14 03:18:41;;;;;;;13.77;11.07;;;6.80;99.90;;;7.58;100.00;-19984.78;5094742;28;20189;-61
2021/12/14 03:21:14;;;;;;;12.70;10.43;;;6.80;99.90;;;7.68;100.00;-19988.34;5094429;28;20646;-62
2021/12/14 03:23:47;;;;;;;11.70;9.47;;;6.80;99.90;;;7.67;100.00;-19988.00;5094060;28;20310;-61
2021/12/14 03:26:20;;;;;;;12.83;9.70;;;6.80;99.90;;;7.63;100.00;-19986.47;5093870;28;20180;-61
2021/12/14 03:28:54;;;;;;;10.80;9.13;;;6.80;99.90;;;7.59;100.00;-19985.09;5092755;28;20188;-60
2021/12/14 03:31:31;;;;;;;11.30;9.10;;;6.80;99.90;;;7.72;100.00;-19989.72;5093808;28;20207;-59
2021/12/14 03:34:04;;;;;;;10.57;8.70;;;6.80;99.90;;;7.61;100.00;-19985.97;5093873;28;20263;-60
2021/12/14 03:36:40;;;;;;;11.97;9.37;;;6.80;99.90;;;7.55;100.00;-19983.75;5094034;28;20191;-60
2021/12/14 03:39:15;;;;;;;10.30;8.17;;;6.80;99.90;;;7.61;100.00;-19985.97;5093812;28;20607;-61
2021/12/14 03:41:47;;;;;;;10.70;8.57;;;6.80;99.90;;;7.59;100.00;-19985.09;5094191;28;20271;-61
2021/12/14 03:44:20;;;;;;;12.43;9.97;;;6.80;99.90;;;7.58;100.00;-19984.78;5094188;28;20195;-61
2021/12/14 03:46:53;;;;;;;13.13;9.77;;;6.80;99.90;;;7.48;100.00;-19981.53;5093756;28;20639;-61
2021/12/14 03:49:29;;;;;;;12.20;10.47;;;6.80;99.90;;;7.42;100.00;-19979.47;5094037;28;20527;-60
2021/12/14 03:51:58;;;;;;;11.47;10.27;;;6.80;99.90;;;7.50;100.00;-19982.03;5093567;28;20220;-60
2021/12/14 03:54:28;;;;;;;11.53;10.33;;;6.70;99.90;;;7.49;100.00;-19981.69;5093872;28;20199;-60
2021/12/14 03:56:57;;;;;;;12.70;11.50;;;6.70;99.90;;;7.41;100.00;-19979.31;5093839;28;20610;-62
2021/12/14 03:59:28;;;;;;;12.63;11.27;;;6.70;99.90;;;7.57;100.00;-19984.59;5093721;28;20283;-60
2021/12/14 04:01:58;;;;;;;12.33;11.03;;;6.70;99.90;;;7.51;100.00;-19982.38;5088733;28;20288;-60
2021/12/14 04:04:35;;;;;;;10.87;9.07;;;6.70;99.90;;;7.47;100.00;-19981.34;5073330;28;20242;-60
2021/12/14 04:07:09;;;;;;;9.53;7.80;;;6.70;99.90;;;7.42;100.00;-19979.47;5091308;28;20662;-62
2021/12/14 04:09:41;;;;;;;11.33;8.73;;;6.70;99.90;;;7.44;100.00;-19980.31;5093309;28;20639;-61
2021/12/14 04:12:14;;;;;;;10.43;8.33;;;6.70;99.90;;;7.55;100.00;-19983.75;5093516;28;20211;-61
2021/12/14 04:14:47;;;;;;;9.37;7.67;;;6.70;99.90;;;7.71;100.00;-19989.38;5093373;28;20279;-62
2021/12/14 04:17:17;;;;;;;7.73;6.73;;;6.70;99.90;;;7.58;100.00;-19984.94;5093443;28;20180;-62
2021/12/14 04:19:45;;;;;;;7.87;6.43;;;6.80;99.90;;;7.54;100.00;-19983.56;5093416;28;20184;-61
2021/12/14 04:22:18;;;;;;;11.13;7.40;;;6.70;99.90;;;7.55;100.00;-19983.91;5093340;28;20282;-60
2021/12/14 04:24:57;;;;;;;9.80;7.20;;;6.70;99.90;;;7.61;100.00;-19985.97;5093389;28;20271;-60
2021/12/14 04:27:30;;;;;;;7.70;6.90;;;6.80;99.90;;;7.44;100.00;-19980.16;5093523;28;20615;-60
2021/12/14 04:30:04;;;;;;;8.43;6.83;;;6.70;99.90;;;7.36;100.00;-19977.59;5092972;28;20670;-60
2021/12/14 04:32:32;;;;;;;8.73;6.90;;;6.70;99.90;;;7.35;100.00;-19977.06;5092704;28;20250;-61
2021/12/14 04:35:00;;;;;;;8.47;7.00;;;6.70;99.90;;;7.42;100.00;-19979.63;5093000;28;20293;-61
2021/12/14 04:37:28;;;;;;;8.00;6.50;;;6.60;99.90;;;7.39;100.00;-19978.63;5092830;28;20534;-61
2021/12/14 04:40:12;;;;;;;7.87;6.43;;;6.60;99.90;;;7.35;100.00;-19977.06;5092731;28;20200;-60
2021/12/14 04:53:55;;;;;;;6.90;6.10;;;6.60;99.90;;;7.65;100.00;-19987.16;5092820;28;20223;-61
2021/12/14 04:56:31;;;;;;;7.37;6.00;;;6.60;99.90;;;7.43;100.00;-19979.97;5092376;28;20553;-60
2021/12/14 04:59:05;;;;;;;8.17;6.30;;;6.60;99.90;;;7.39;100.00;-19978.44;5081014;28;20199;-61
2021/12/14 05:01:39;;;;;;;7.93;6.03;;;6.60;99.90;;;7.32;100.00;-19976.06;5073669;28;20275;-61
2021/12/14 05:04:14;;;;;;;7.63;6.67;;;6.60;99.90;;;7.42;100.00;-19979.47;5092132;28;20237;-60
2021/12/14 05:06:48;;;;;;;8.97;6.97;;;6.60;99.90;;;7.42;100.00;-19979.63;5092431;28;20223;-61
2021/12/14 05:09:21;;;;;;;7.90;6.43;;;6.60;99.90;;;7.26;100.00;-19974.19;5092581;28;20266;-60
2021/12/14 05:11:55;;;;;;;7.93;6.73;;;6.60;99.90;;;7.43;100.00;-19979.81;5092078;28;20298;-59
2021/12/14 05:14:28;;;;;;;7.47;6.10;;;6.60;99.90;;;7.32;100.00;-19976.22;5092944;28;20199;-61
2021/12/14 05:16:59;;;;;;;6.90;5.70;;;6.50;99.90;;;7.27;100.00;-19974.34;5092542;28;20184;-62
2021/12/14 05:19:33;;;;;;;6.37;5.63;;;6.50;99.90;;;7.36;100.00;-19977.59;5092459;28;20542;-60
2021/12/14 05:22:08;;;;;;;7.70;6.40;;;6.60;99.90;;;7.43;100.00;-19979.97;5092486;28;20606;-62
2021/12/14 05:24:41;;;;;;;6.70;6.00;;;6.60;99.90;;;7.32;100.00;-19976.22;5092554;28;20190;-61
2021/12/14 05:27:16;;;;;;;7.40;6.40;;;6.60;99.90;;;7.33;100.00;-19976.41;5092449;28;20215;-62
2021/12/14 05:29:46;;;;;;;7.93;5.93;;;6.60;99.90;;;7.29;100.00;-19975.19;5092260;28;20657;-61
2021/12/14 05:32:18;;;;;;;7.57;6.30;;;6.60;99.90;;;7.32;100.00;-19976.22;5091487;28;20704;-61
2021/12/14 05:34:51;;;;;;;8.00;6.20;;;6.60;99.90;;;7.25;100.00;-19973.66;5092574;28;20208;-61
2021/12/14 05:37:26;;;;;;;6.93;5.80;;;6.50;99.90;;;7.22;100.00;-19972.81;5092356;28;20184;-61
2021/12/14 05:39:59;;;;;;;8.27;6.33;;;6.50;99.90;;;7.31;100.00;-19975.88;5092433;28;20187;-61
2021/12/14 05:45:23;;;;;;;8.60;5.87;;;6.50;99.90;;;7.25;100.00;-19973.84;5072159;28;20275;-61
2021/12/14 05:47:54;;;;;;;6.63;5.90;;;6.50;99.90;;;7.20;100.00;-19971.94;5072092;28;20587;-62
2021/12/14 05:50:28;;;;;;;7.33;6.27;;;6.50;99.90;;;7.20;100.00;-19972.13;5072185;28;20342;-61
2021/12/14 05:52:57;;;;;;;6.83;5.53;;;6.50;99.90;;;7.21;100.00;-19972.47;5073569;28;20232;-61
2021/12/14 05:55:33;;;;;;;6.80;5.87;;;6.50;99.90;;;7.29;100.00;-19975.03;5088972;28;20200;-61
2021/12/14 05:58:11;;;;;;;7.20;6.47;;;6.50;99.90;;;7.23;100.00;-19973.16;5092376;28;20216;-61
2021/12/14 06:00:43;;;;;;;6.67;6.07;;;6.50;99.90;;;7.22;100.00;-19972.81;5075916;28;20185;-61
2021/12/14 06:03:23;;;;;;;7.60;6.80;;;6.50;99.90;;;7.22;100.00;-19972.81;5075947;28;20184;-61
2021/12/14 06:05:54;;;;;;;8.90;7.40;;;6.50;99.90;;;7.21;100.00;-19972.28;5083888;28;20188;-61
2021/12/14 06:08:26;;;;;;;8.73;7.83;;;6.50;99.90;;;7.22;100.00;-19972.81;5095561;28;20185;-61
2021/12/14 06:10:57;;;;;;;7.77;6.63;;;6.50;99.90;;;7.20;100.00;-19972.13;5095953;28;20183;-62
2021/12/14 06:13:41;;;;;;;7.13;5.80;;;6.50;99.90;;;7.19;100.00;-19971.78;5095866;28;20205;-61
2021/12/14 06:16:22;;;;;;;6.63;5.97;;;6.50;99.90;;;7.22;100.00;-19972.81;5095760;28;20282;-62
2021/12/14 06:18:50;;;;;;;6.60;5.90;;;6.50;99.90;;;7.33;100.00;-19976.41;5095653;28;20631;-61
2021/12/14 06:21:29;;;;;;;8.90;8.00;;;6.50;99.90;;;7.39;100.00;-19978.63;5095794;28;20208;-62
2021/12/14 06:24:04;;;;;;;8.30;7.50;;;6.50;99.90;;;7.30;100.00;-19975.38;5095577;28;20279;-63
2021/12/14 06:26:34;;;;;;;8.93;8.03;;;6.50;99.90;;;7.34;100.00;-19976.91;5095817;28;20187;-60
2021/12/14 06:29:12;;;;;;;7.20;6.50;;;6.50;99.90;;;7.24;100.00;-19973.50;5095719;28;20291;-62
2021/12/14 06:31:42;;;;;;;8.70;7.80;;;6.50;99.90;;;7.25;100.00;-19973.66;5095006;28;20646;-61
2021/12/14 06:34:22;;;;;;;8.20;7.40;;;6.50;99.90;;;7.35;100.00;-19977.25;5095692;28;20192;-61
2021/12/14 06:37:41;;;;;;;8.90;7.57;;;6.50;99.90;;;7.27;100.00;-19974.50;5095254;28;20180;-62
2021/12/14 06:40:19;;;;;;;7.27;6.57;;;6.50;99.90;;;7.25;100.00;-19973.66;5095254;28;20204;-62
2021/12/14 06:42:51;;;;;;;6.97;6.27;;;6.60;99.90;;;7.24;100.00;-19973.50;5095297;28;20184;-60
2021/12/14 06:45:27;;;;;;;8.03;7.10;;;6.50;99.90;;;7.28;100.00;-19974.84;5095136;28;20654;-61
2021/12/14 06:48:03;;;;;;;7.30;6.60;;;6.60;99.90;;;7.26;100.00;-19974.19;5094989;28;20190;-61
2021/12/14 06:50:40;;;;;;;6.60;5.87;;;6.60;99.90;;;7.29;100.00;-19975.19;5095006;28;20192;-61
2021/12/14 06:53:13;;;;;;;5.77;5.00;;;6.60;99.90;;;7.29;100.00;-19975.19;5094716;28;20699;-61
2021/12/14 06:55:43;;;;;;;6.50;5.27;;;6.60;99.90;;;7.29;100.00;-19975.19;5095292;28;20202;-61
2021/12/14 06:58:15;;;;;;;5.77;5.17;;;6.60;99.90;;;7.33;100.00;-19976.56;5095033;28;20189;-61
2021/12/14 07:00:51;;;;;;;5.97;5.20;;;6.60;99.90;;;7.28;100.00;-19974.84;5095062;28;20191;-60
2021/12/14 07:03:20;;;;;;;6.93;5.90;;;6.60;99.90;;;7.30;100.00;-19975.38;5094935;28;20229;-61
2021/12/14 07:05:51;;;;;;;6.87;5.47;;;6.50;99.90;;;7.30;100.00;-19975.53;5094366;28;20192;-60
2021/12/14 07:08:26;;;;;;;6.10;5.33;;;6.50;99.90;;;7.41;100.00;-19979.13;5094606;28;20627;-60
2021/12/14 07:10:55;;;;;;;6.03;5.00;;;6.60;99.90;;;7.32;100.00;-19976.22;5094630;28;20188;-61
2021/12/14 07:13:36;;;;;;;5.60;5.00;;;6.60;99.90;;;7.29;100.00;-19975.19;5094791;28;20216;-62
2021/12/14 07:16:20;;;;;;;5.53;4.70;;;6.60;99.90;;;7.27;100.00;-19974.50;5094707;28;20190;-62
2021/12/14 07:19:00;;;;;;;7.17;4.80;;;6.60;99.90;;;7.27;100.00;-19974.50;5094470;28;20620;-61
2021/12/14 07:21:42;;;;;;;6.47;5.30;;;6.60;99.90;;;7.31;100.00;-19975.88;5094689;28;20180;-61
2021/12/14 07:24:35;;;;;;;5.87;5.17;;;6.60;99.90;;;7.33;100.00;-19976.56;5094290;28;20229;-60
2021/12/14 07:27:26;;;;;;;6.63;4.93;;;6.60;99.90;;;7.32;100.00;-19976.06;5091407;28;20208;-61
2021/12/14 07:30:13;;;;;;;5.10;4.60;;;6.60;99.90;;;7.47;100.00;-19981.19;5094325;28;20190;-62
2021/12/14 07:32:49;;;;;;;5.83;5.23;;;6.60;99.90;;;7.42;100.00;-19979.63;5093711;28;20323;-58
2021/12/14 07:35:28;;;;;;;6.63;5.10;;;6.60;99.90;;;7.38;100.00;-19978.09;5094277;28;20184;-60
2021/12/14 07:38:01;;;;;;;6.67;5.30;;;6.60;99.90;;;7.44;100.00;-19980.16;5093815;28;20620;-60
2021/12/14 07:40:39;;;;;;;6.67;5.70;;;6.60;99.90;;;7.51;100.00;-19982.53;5094379;28;20276;-61
2021/12/14 07:43:15;;;;;;;7.07;5.77;;;6.70;99.90;;;7.43;100.00;-19979.97;5093772;28;20184;-60
2021/12/14 07:45:43;;;;;;;7.30;5.43;;;6.70;99.90;;;7.46;100.00;-19980.84;5093605;28;20271;-59
2021/12/14 07:48:13;;;;;;;6.33;5.30;;;6.60;99.90;;;7.46;100.00;-19980.84;5078493;28;20201;-62
2021/12/14 07:50:51;;;;;;;7.23;5.77;;;6.60;99.90;;;7.47;100.00;-19981.00;5078496;28;20291;-60
2021/12/14 07:53:41;;;;;;;8.27;5.90;;;6.70;99.90;;;7.53;100.00;-19983.06;5093567;28;20679;-62
2021/12/14 07:56:22;;;;;;;6.97;6.00;;;6.70;99.90;;;7.47;100.00;-19981.00;5093893;28;20227;-62
2021/12/14 07:58:50;;;;;;;6.73;5.73;;;6.70;99.90;;;7.44;100.00;-19980.31;5093673;28;20191;-64
2021/12/14 08:01:18;;;;;;;6.90;5.57;;;6.70;99.90;;;7.72;100.00;-19989.56;5093554;28;20658;-61
2021/12/14 08:03:57;;;;;;;6.40;5.77;;;6.80;99.90;;;7.72;100.00;-19989.56;5093693;28;20208;-62
2021/12/14 08:06:25;;;;;;;8.77;6.80;;;6.80;99.90;;;7.61;100.00;-19985.78;5093569;28;20284;-62
2021/12/14 08:08:55;;;;;;;7.47;6.00;;;6.80;99.90;;;7.64;100.00;-19986.81;5093434;28;20204;-69
2021/12/14 08:11:47;;;;;;;6.83;6.13;;;6.80;99.90;;;7.59;100.00;-19985.09;5091204;28;20215;-53
2021/12/14 08:14:25;;;;;;;6.30;5.43;;;6.80;99.90;;;7.61;100.00;-19985.78;5090280;28;20303;-51
2021/12/14 08:17:02;;;;;;;8.43;7.50;;;6.80;99.90;;;7.58;100.00;-19984.94;5089900;28;20593;-53
2021/12/14 08:19:37;;;;;;;7.83;5.73;;;6.80;99.90;;;7.59;100.00;-19985.09;5090590;28;20184;-54
2021/12/14 08:22:12;;;;;;;7.27;6.13;;;6.80;99.90;;;7.57;100.00;-19984.59;5090507;28;20180;-56
2021/12/14 08:24:49;;;;;;;9.10;6.43;;;6.80;99.90;;;7.65;100.00;-19987.34;5090311;28;20238;-53
2021/12/14 08:27:22;;;;;;;7.27;6.07;;;6.90;99.90;;;7.62;100.00;-19986.31;5090424;28;20275;-55
2021/12/14 08:29:54;;;;;;;7.77;6.50;;;6.90;99.90;;;7.63;100.00;-19986.47;5090356;28;20200;-52
2021/12/14 08:32:27;;;;;;;8.37;7.00;;;6.90;99.90;;;7.79;100.00;-19991.94;5080677;28;20263;-54
2021/12/14 08:34:56;;;;;;;7.03;6.33;;;6.90;99.90;;;7.76;100.00;-19990.91;5069932;28;20217;-61
2021/12/14 08:37:33;;;;;;;7.20;6.10;;;6.90;99.90;;;7.72;100.00;-19989.72;5069961;28;20210;-59
2021/12/14 08:40:08;;;;;;;9.73;7.83;;;6.90;99.90;;;7.71;100.00;-19989.22;5069985;28;20199;-59
2021/12/14 08:42:49;;;;;;;10.60;8.40;;;6.90;99.90;;;7.72;100.00;-19989.56;5069784;28;20287;-60
2021/12/14 08:45:26;;;;;;;9.17;8.00;;;6.90;99.90;;;7.67;100.00;-19987.84;5069448;28;20221;-60
2021/12/14 08:48:07;;;;;;;9.63;7.80;;;6.90;99.90;;;7.63;100.00;-19986.66;5082158;28;20196;-60
2021/12/14 08:50:45;;;;;;;9.77;8.33;;;6.90;99.90;;;7.62;100.00;-19986.13;5089532;28;20650;-62
2021/12/14 08:53:15;;;;;;;9.90;8.43;;;6.90;99.90;;;7.65;100.00;-19987.34;5089744;28;20300;-60
2021/12/14 08:55:50;;;;;;;10.47;9.13;;;6.90;99.90;;;7.80;100.00;-19992.28;5089762;28;20290;-60
2021/12/14 08:58:19;;;;;;;10.73;8.90;;;6.90;99.90;;;7.70;100.00;-19989.03;5089805;28;20322;-59
2021/12/14 09:00:51;;;;;;;10.23;8.00;;;6.90;99.90;;;7.70;100.00;-19988.88;5089360;28;20207;-59
2021/12/14 09:03:32;;;;;;;10.67;7.20;;;6.90;99.90;;;7.76;100.00;-19990.91;5089953;28;20181;-59
2021/12/14 09:06:06;;;;;;;8.83;7.00;;;6.90;99.90;;;7.73;100.00;-19990.06;5089471;28;20215;-60
2021/12/14 09:08:35;;;;;;;9.27;7.33;;;6.90;99.90;;;7.80;100.00;-19992.28;5089633;28;20286;-60
2021/12/14 09:11:05;;;;;;;9.23;7.70;;;6.90;99.90;;;7.83;100.00;-19993.31;5089492;28;20207;-61
2021/12/14 09:13:34;;;;;;;9.43;7.33;;;6.90;99.90;;;7.83;100.00;-19993.47;5089877;28;20310;-59
2021/12/14 09:16:08;;;;;;;9.33;7.10;;;7.00;99.90;;;7.86;100.00;-19994.34;5089021;28;20208;-61
2021/12/14 09:18:43;;;;;;;9.10;7.67;;;6.90;99.90;;;7.88;100.00;-19995.03;5089699;28;20275;-58
2021/12/14 09:21:20;;;;;;;10.97;7.90;;;7.00;99.90;;;7.93;100.00;-19996.91;5089145;28;20184;-58
2021/12/14 09:24:05;;;;;;;8.20;6.83;;;7.00;99.90;;;8.09;100.00;-20002.38;5089188;28;20180;-56
2021/12/14 09:26:36;;;;;;;10.93;7.77;;;7.10;99.90;;;8.05;100.00;-20001.00;5089217;28;20652;-56
2021/12/14 09:29:09;;;;;;;10.37;7.40;;;7.10;99.90;;;8.05;100.00;-20000.84;5093052;28;20201;-59
2021/12/14 09:31:40;;;;;;;9.53;7.27;;;7.10;99.90;;;7.99;100.00;-19998.78;5093350;28;20188;-60
2021/12/14 09:34:13;;;;;;;9.13;7.30;;;7.10;99.90;;;7.93;100.00;-19996.72;5092894;28;20208;-59
2021/12/14 09:36:44;;;;;;;8.20;7.27;;;7.10;99.90;;;8.01;100.00;-19999.47;5093493;28;20267;-58
2021/12/14 09:39:18;;;;;;;9.10;7.50;;;7.10;99.90;;;8.00;100.00;-19999.13;5090157;28;20287;-61
2021/12/14 09:41:53;;;;;;;9.30;7.80;;;7.10;99.90;;;7.98;100.00;-19998.44;5073227;28;20260;-61
2021/12/14 09:44:27;;;;;;;9.40;8.33;;;7.10;99.90;;;7.86;100.00;-19994.34;5087196;28;20534;-59
2021/12/14 09:47:02;;;;;;;13.23;10.73;;;7.10;99.90;;;7.85;100.00;-19994.16;5093191;28;20181;-61
2021/12/14 09:49:31;;;;;;;9.63;8.37;;;7.00;99.90;;;8.04;100.00;-20000.47;5092750;28;20192;-60
2021/12/14 09:52:05;;;;;;;10.13;9.03;;;7.10;99.90;;;8.04;100.00;-20000.66;5093124;28;20196;-59
2021/12/14 09:54:34;;;;;;;9.47;8.03;;;7.10;99.90;;;7.92;100.00;-19996.38;5092638;28;20227;-63
2021/12/14 09:57:11;;;;;;;9.80;8.03;;;7.10;99.90;;;7.97;100.00;-19998.09;5092954;28;20282;-70
2021/12/14 09:59:43;;;;;;;10.27;8.97;;;7.10;99.90;;;8.16;100.00;-20004.75;5093119;28;20184;-70
2021/12/14 10:02:20;;;;;;;11.97;10.27;;;7.10;99.90;;;8.04;100.00;-20000.47;5092478;28;20654;-68
2021/12/14 10:04:52;;;;;;;14.47;11.20;;;7.20;99.90;;;7.98;100.00;-19998.44;5092730;28;20186;-66
2021/12/14 10:07:25;;;;;;;13.27;9.83;;;7.20;99.90;;;8.07;100.00;-20001.50;5072345;28;20185;-62
2021/12/14 10:09:59;;;;;;;10.13;8.33;;;7.10;99.90;;;8.05;100.00;-20001.00;5072554;28;20185;-61
2021/12/14 10:12:49;;;;;;;14.03;8.97;;;7.20;99.90;;;8.13;100.00;-20003.56;5072603;28;20713;-60
2021/12/14 10:15:26;;;;;;;11.10;8.83;;;7.10;99.90;;;7.99;100.00;-19998.94;5072025;28;20248;-60
2021/12/14 10:17:59;;;;;;;12.30;8.90;;;7.10;99.90;;;7.94;100.00;-19997.06;5072017;28;20224;-60
2021/12/14 10:20:34;;;;;;;11.80;9.33;;;7.10;99.90;;;8.05;100.00;-20000.84;5072206;28;20192;-61
2021/12/14 10:23:06;;;;;;;11.63;8.70;;;7.20;99.90;;;8.03;100.00;-20000.16;5072140;28;20283;-62
2021/12/14 10:25:35;;;;;;;12.23;9.67;;;7.20;99.90;;;8.14;100.00;-20004.06;5087099;28;20206;-62
2021/12/14 10:28:05;;;;;;;13.53;9.60;;;7.20;99.90;;;8.34;100.00;-20010.75;5092287;28;20606;-64
2021/12/14 10:30:40;;;;;;;12.57;10.97;;;7.20;99.90;;;8.35;100.00;-20011.09;5092522;28;20200;-64
2021/12/14 10:33:10;;;;;;;13.37;10.43;;;7.30;99.90;;;8.31;100.00;-20009.72;5091817;28;20725;-59
2021/12/14 10:35:47;;;;;;;12.50;9.97;;;7.30;99.90;;;8.25;100.00;-20007.66;5087632;28;20216;-60
2021/12/14 10:38:29;;;;;;;13.00;9.80;;;7.40;99.90;;;8.13;100.00;-20003.72;5071534;28;20276;-60
2021/12/14 10:43:50;;;;;;;16.03;10.73;;;7.30;99.90;;;8.55;100.00;-20017.91;5091954;28;20294;-60
2021/12/14 10:46:25;;;;;;;12.70;9.90;;;7.40;99.90;;;8.37;100.00;-20011.94;5091731;28;20204;-56
2021/12/14 10:48:55;;;;;;;13.67;10.13;;;7.40;99.90;;;8.45;100.00;-20014.69;5092014;28;20192;-68
2021/12/14 10:51:30;;;;;;;13.87;10.40;;;7.40;99.90;;;8.42;100.00;-20013.47;5091740;28;20199;-61
2021/12/14 10:54:02;;;;;;;14.70;11.13;;;7.40;99.90;;;8.35;100.00;-20011.25;5091981;28;20186;-60
2021/12/14 10:56:43;;;;;;;14.87;11.43;;;7.40;99.90;;;8.44;100.00;-20014.34;5091902;28;20196;-61
2021/12/14 10:59:16;;;;;;;15.27;12.13;;;7.40;99.90;;;8.41;100.00;-20013.13;5091934;28;20266;-62
2021/12/14 11:01:49;;;;;;;14.30;11.23;;;7.40;99.90;;;8.34;100.00;-20010.75;5091823;28;20184;-62